Hood River, OR

11:11 PM PDT on April 27, 2015 (GMT -0700)
Hood River West | | Change Station
CLOSE
Current Station
Personal Weather Station
Location: Hood River, OR
Elevation: 700 ft
Nearby Weather Stations

Elev 700 ft 45.69 °N, 121.57 °W | Updated 60 seconds ago

Clear
Clear
57.0 °F
Feels Like 57.0 °F
N
0.0
Wind Variable Wind from North
Gusts 0.0 mph

Today
High -- | Low -- °F
--% Chance of Precip.
Yesterday
High -- | Low -- °F
Precip. -- in
6:00 AM 8:08 PM
Waxing Gibbous, 71% visible
Pressure 30.04 in
Visibility 10.0 miles
Clouds Clear
Dew Point 45 °F
Humidity 64%
Rainfall 0.00 in
Snow Depth Not available.
UV 0.0 out of 12
Pollen 9.80 out of 12
Air Quality Not available.
Flu Activity Sporadic
METAR KDLS 280553Z AUTO 09003KT 10SM CLR 17/06 A3004 RMK AO2 SLP171 60000 T01670056 10272 20150 50004

More Conditions Fewer Conditions

Pressure 30.04 in
Visibility 10.0 miles
Clouds Clear
Dew Point 45 °F
Humidity 64%
Rainfall 0.00 in
Snow Depth Not available.
UV 0.0 out of 12
Pollen 9.80 out of 12
Air Quality Not available.
Flu Activity Sporadic
METAR KDLS 280553Z AUTO 09003KT 10SM CLR 17/06 A3004 RMK AO2 SLP171 60000 T01670056 10272 20150 50004

More Conditions Fewer Conditions

10-Day Weather Forecast

Almanac

Astronomy

Apr. 27, 2015 Rise Set
Actual Time
Civil Twilight
Nautical Twilight
Astronomical Twilight
Moon
Length of Visible Light
Length of Day
Tomorrow will be .
, % of the Moon is Illuminated

Today's Extremes

State Highs State Lows

Community

WunderPhotos

Upload Photos

1,817,591 photos uploaded!

WunderBlogs® & News

Nearby

Air Quality

  Air Quality AQ Index Pollutant
Not available.

Snow Depth

Station Depth Elevation

Earthquake Activity

City Distance Mag. Time & Date
Minimum magnitude displayed is 2.5.

Coastal Water Temperatures

Place Temperature

Stations

Nearby Weather Stations

Station Location Temp. Windchill Dew Point Humidity Wind Precip. Elev Updated Type